Time;durP1;ratioP1;P1;durP2;ratioP2;P2;SDS_P1;SDS_P2;PMS_P1;PMS_P2;Temp;Humidity;BMP_temperature;BMP_pressure;BME280_temperature;BME280_humidity;BME280_pressure;Samples;Min_cycle;Max_cycle;Signal;HPM_P1;HPM_P2
2023/05/01 00:00:08;;;;;;;11.90;7.30;;;;;;;7.18;48.89;99019.59;5083337;28;20020;-80
2023/05/01 00:02:34;;;;;;;13.88;7.90;;;;;;;7.13;49.28;99007.53;5113704;28;20032;-80
2023/05/01 00:05:00;;;;;;;14.10;8.45;;;;;;;7.08;49.24;99004.81;5113442;28;20538;-80
2023/05/01 00:07:29;;;;;;;15.60;8.18;;;;;;;7.02;49.29;99011.28;5113721;28;20027;-80
2023/05/01 00:09:58;;;;;;;13.83;7.43;;;;;;;6.98;49.17;99007.44;5113738;28;20079;-80
2023/05/01 00:12:24;;;;;;;15.63;8.93;;;;;;;6.93;49.21;99005.47;5113542;28;20110;-80
2023/05/01 00:14:50;;;;;;;14.75;8.23;;;;;;;6.90;49.60;99005.16;5113511;28;20507;-80
2023/05/01 00:17:15;;;;;;;13.60;7.93;;;;;;;6.86;49.90;99010.31;5113514;28;20020;-79
2023/05/01 00:19:41;;;;;;;11.95;7.88;;;;;;;6.82;49.73;99009.19;5113668;28;20020;-80
2023/05/01 00:22:06;;;;;;;13.27;7.93;;;;;;;6.79;49.50;98998.81;5055176;28;20030;-80
2023/05/01 00:24:32;;;;;;;12.43;7.82;;;;;;;6.76;49.79;98993.88;5010304;28;20039;-81
2023/05/01 00:26:57;;;;;;;17.30;8.57;;;;;;;6.74;49.93;98998.75;5010223;28;20097;-80
2023/05/01 00:29:23;;;;;;;13.98;8.55;;;;;;;6.71;49.89;98997.38;5010232;28;20421;-80
2023/05/01 00:31:48;;;;;;;17.35;8.02;;;;;;;6.68;49.61;98992.44;5013656;28;20479;-80
2023/05/01 00:34:13;;;;;;;13.52;7.78;;;;;;;6.65;49.72;98992.94;5013661;28;20045;-80
2023/05/01 00:36:39;;;;;;;13.50;7.75;;;;;;;6.63;50.02;98990.47;5014000;28;20025;-80
2023/05/01 00:39:06;;;;;;;13.10;8.18;;;;;;;6.61;50.26;98983.63;5013741;28;20030;-80
2023/05/01 00:41:33;;;;;;;12.88;8.50;;;;;;;6.60;50.33;98979.25;5013631;28;20065;-80
2023/05/01 00:43:58;;;;;;;14.45;8.25;;;;;;;6.57;50.12;98982.50;5013578;28;20037;-80
2023/05/01 00:46:24;;;;;;;13.48;8.35;;;;;;;6.53;50.30;98980.28;5013561;28;20082;-80
2023/05/01 00:48:51;;;;;;;15.68;8.35;;;;;;;6.52;50.18;98977.84;5013619;28;20030;-81
2023/05/01 00:51:17;;;;;;;13.90;8.40;;;;;;;6.48;50.09;98977.50;5029733;28;20111;-80
2023/05/01 00:53:43;;;;;;;15.68;8.82;;;;;;;6.47;50.15;98988.69;5117447;28;20050;-79
2023/05/01 00:56:10;;;;;;;14.57;8.70;;;;;;;6.43;50.42;98976.63;5118046;28;20024;-80
2023/05/01 00:58:36;;;;;;;12.70;8.95;;;;;;;6.41;50.22;98979.59;5118339;28;20107;-80
2023/05/01 01:01:03;;;;;;;17.83;9.90;;;;;;;6.37;50.17;98979.31;5117081;28;20062;-80
2023/05/01 01:03:30;;;;;;;16.23;10.30;;;;;;;6.35;50.39;98975.19;5116863;28;20122;-78
2023/05/01 01:06:16;;;;;;;19.63;12.52;;;;;;;6.32;50.78;98983.84;5098747;28;20048;-78
2023/05/01 01:09:06;;;;;;;19.45;11.95;;;;;;;6.30;50.48;98975.94;5117091;28;20115;-78
2023/05/01 01:12:00;;;;;;;24.80;12.30;;;;;;;6.26;50.62;98977.53;5098595;28;20032;-78
2023/05/01 01:14:35;;;;;;;22.30;12.95;;;;;;;6.24;50.72;98976.97;5116693;28;20027;-79
2023/05/01 01:17:06;;;;;;;24.50;13.15;;;;;;;6.19;51.00;98968.72;5116897;28;20453;-80
2023/05/01 01:19:52;;;;;;;29.65;14.50;;;;;;;6.15;50.76;98965.72;5098758;28;20381;-79
2023/05/01 01:22:22;;;;;;;32.17;15.30;;;;;;;6.13;50.71;98970.59;5117346;28;20027;-78
2023/05/01 01:24:48;;;;;;;29.17;15.05;;;;;;;6.09;51.22;98964.00;5116672;28;20028;-78
2023/05/01 01:27:36;;;;;;;30.13;15.23;;;;;;;6.05;51.05;98963.69;5116553;28;20096;-79
2023/05/01 01:30:11;;;;;;;31.20;16.20;;;;;;;6.05;50.89;98971.03;5110742;28;20068;-79
2023/05/01 01:33:03;;;;;;;27.77;15.57;;;;;;;6.00;50.76;98963.63;5116477;28;20036;-79
2023/05/01 01:35:30;;;;;;;28.20;15.77;;;;;;;5.96;51.36;98963.25;5116546;28;20034;-79
2023/05/01 01:38:03;;;;;;;29.00;15.43;;;;;;;5.94;51.01;98964.59;5116441;28;20050;-79
2023/05/01 01:40:48;;;;;;;26.33;14.88;;;;;;;5.88;51.76;98965.63;5116092;28;20024;-79
2023/05/01 01:43:17;;;;;;;29.88;15.48;;;;;;;5.86;51.75;98957.72;5116297;28;20362;-80
2023/05/01 01:45:47;;;;;;;31.95;16.20;;;;;;;5.81;51.48;98960.38;5116630;28;20393;-80
2023/05/01 01:48:17;;;;;;;32.13;16.63;;;;;;;5.79;51.83;98954.34;5116054;28;20077;-79
2023/05/01 01:50:44;;;;;;;30.70;16.40;;;;;;;5.77;51.95;98951.06;5116738;28;20096;-80
2023/05/01 01:53:14;;;;;;;33.17;17.80;;;;;;;5.74;51.64;98949.66;5115987;28;20034;-79
2023/05/01 01:55:42;;;;;;;32.63;17.20;;;;;;;5.75;51.50;98955.94;5115972;28;20362;-79
2023/05/01 01:58:09;;;;;;;33.83;17.50;;;;;;;5.72;52.30;98957.25;5115989;28;20075;-79
2023/05/01 02:00:35;;;;;;;31.70;16.67;;;;;;;5.69;51.88;98952.31;5115957;28;20015;-80
2023/05/01 02:03:02;;;;;;;29.15;17.60;;;;;;;5.66;51.91;98947.38;5116052;28;20162;-79
2023/05/01 02:05:30;;;;;;;32.30;16.83;;;;;;;5.65;51.86;98945.75;5115693;28;20055;-79
2023/05/01 02:07:56;;;;;;;31.88;16.95;;;;;;;5.61;52.36;98953.56;5117120;28;20049;-79
2023/05/01 02:10:23;;;;;;;30.63;16.73;;;;;;;5.58;52.34;98948.63;5098717;28;20498;-80
2023/05/01 02:12:51;;;;;;;33.15;17.50;;;;;;;5.54;52.64;98943.94;5117470;28;20027;-79
2023/05/01 02:15:19;;;;;;;28.85;17.10;;;;;;;5.50;52.17;98939.00;5116919;28;20173;-80
2023/05/01 02:17:45;;;;;;;29.60;15.88;;;;;;;5.49;52.58;98945.53;5115680;28;20032;-79
2023/05/01 02:20:12;;;;;;;28.00;16.13;;;;;;;5.47;52.57;98941.41;5115514;28;20487;-80
2023/05/01 02:22:39;;;;;;;30.00;15.88;;;;;;;5.45;52.38;98932.69;5097275;28;20027;-80
2023/05/01 02:25:09;;;;;;;27.52;15.52;;;;;;;5.41;52.14;98932.34;5115523;28;20028;-80
2023/05/01 02:27:39;;;;;;;28.73;15.30;;;;;;;5.39;52.84;98934.50;5097011;28;20027;-80
2023/05/01 02:30:06;;;;;;;25.67;14.60;;;;;;;5.36;52.70;98932.25;5115411;28;20102;-79
2023/05/01 02:32:32;;;;;;;24.40;14.23;;;;;;;5.32;52.08;98933.84;5115353;28;20030;-80
2023/05/01 02:34:58;;;;;;;26.45;14.45;;;;;;;5.28;52.59;98936.25;5115302;28;20453;-79
2023/05/01 02:37:24;;;;;;;24.48;14.18;;;;;;;5.26;52.60;98934.84;5115330;28;20019;-79
2023/05/01 02:39:49;;;;;;;26.30;14.73;;;;;;;5.23;52.72;98933.44;5115259;28;20538;-80
2023/05/01 02:42:17;;;;;;;23.77;13.80;;;;;;;5.19;52.40;98926.84;5115015;28;20111;-79
2023/05/01 02:44:52;;;;;;;24.92;13.73;;;;;;;5.16;52.56;98921.91;5115064;28;20489;-80
2023/05/01 02:47:21;;;;;;;25.33;14.18;;;;;;;5.14;52.54;98927.63;5115106;28;20024;-79
2023/05/01 02:49:48;;;;;;;26.85;14.00;;;;;;;5.12;53.11;98923.47;5115182;28;20059;-79
2023/05/01 02:52:16;;;;;;;23.50;13.50;;;;;;;5.08;53.09;98920.44;5114514;28;20521;-79
2023/05/01 02:54:44;;;;;;;23.88;13.93;;;;;;;5.05;53.21;98921.78;5114614;28;20079;-79
2023/05/01 02:57:10;;;;;;;27.73;14.68;;;;;;;5.03;52.62;98923.09;5114798;28;20024;-80
2023/05/01 02:59:36;;;;;;;25.33;14.77;;;;;;;5.01;53.21;98920.63;5114618;28;20469;-79
2023/05/01 03:02:01;;;;;;;26.45;13.80;;;;;;;5.02;53.01;98922.28;5114810;28;20028;-79
2023/05/01 03:04:27;;;;;;;22.95;13.20;;;;;;;4.99;53.31;98917.34;5114443;28;20032;-79
2023/05/01 03:06:53;;;;;;;24.58;13.35;;;;;;;4.98;53.35;98921.13;5114758;28;20059;-79
2023/05/01 03:09:19;;;;;;;25.05;14.13;;;;;;;4.95;53.50;98920.78;5114741;28;20046;-79
2023/05/01 03:11:45;;;;;;;25.92;14.68;;;;;;;4.93;53.13;98912.88;5114524;28;20018;-79
2023/05/01 03:14:11;;;;;;;25.55;14.95;;;;;;;4.92;53.00;98913.94;5114791;28;20109;-79
2023/05/01 03:16:36;;;;;;;28.52;15.20;;;;;;;4.89;53.26;98911.72;5114415;28;20031;-79
2023/05/01 03:19:01;;;;;;;27.67;15.85;;;;;;;4.86;53.32;98904.91;5096140;28;20031;-79
2023/05/01 03:21:27;;;;;;;27.60;15.70;;;;;;;4.84;53.04;98906.22;5114388;28;20123;-80
2023/05/01 03:23:53;;;;;;;30.25;15.75;;;;;;;4.83;52.87;98910.00;5114231;28;20061;-79
2023/05/01 03:26:18;;;;;;;28.92;16.08;;;;;;;4.81;53.21;98917.56;5114183;28;20039;-79
2023/05/01 03:28:44;;;;;;;26.83;15.25;;;;;;;4.80;52.79;98907.78;5114265;28;20027;-79
2023/05/01 03:31:09;;;;;;;27.23;15.93;;;;;;;4.78;53.56;98905.31;5114233;28;20039;-79
2023/05/01 03:33:36;;;;;;;26.92;15.75;;;;;;;4.76;53.38;98905.53;5114081;28;20469;-79
2023/05/01 03:36:04;;;;;;;31.00;16.20;;;;;;;4.75;53.70;98903.09;5095866;28;20023;-79
2023/05/01 03:38:30;;;;;;;26.95;14.57;;;;;;;4.72;53.08;98909.00;5114065;28;20435;-79
2023/05/01 03:40:56;;;;;;;28.67;16.05;;;;;;;4.69;53.73;98902.16;5113971;28;20032;-80
2023/05/01 03:43:22;;;;;;;31.00;15.50;;;;;;;4.66;53.52;98905.41;5114102;28;20058;-80
2023/05/01 03:45:49;;;;;;;25.33;15.45;;;;;;;4.66;53.15;98904.56;5113975;28;20475;-79
2023/05/01 03:48:15;;;;;;;26.85;15.10;;;;;;;4.62;53.71;98901.53;5113905;28;20030;-79
2023/05/01 03:50:40;;;;;;;26.05;15.88;;;;;;;4.62;53.19;98904.25;5113990;28;20334;-79
2023/05/01 03:53:05;;;;;;;29.45;15.45;;;;;;;4.61;53.35;98905.31;5095760;28;20031;-79
2023/05/01 03:55:31;;;;;;;28.70;15.25;;;;;;;4.62;54.02;98912.38;5113821;28;20024;-79
2023/05/01 03:57:56;;;;;;;24.67;15.18;;;;;;;4.62;54.17;98904.25;5113705;28;20442;-80
2023/05/01 04:00:22;;;;;;;26.42;15.80;;;;;;;4.65;53.57;98914.63;5098506;28;20493;-79
2023/05/01 04:02:47;;;;;;;27.08;15.73;;;;;;;4.65;53.81;98898.31;5009702;28;20033;-79
2023/05/01 04:05:13;;;;;;;25.63;15.02;;;;;;;4.67;53.74;98890.75;5010180;28;20069;-79
2023/05/01 04:07:39;;;;;;;28.02;15.45;;;;;;;4.68;53.67;98897.00;5009071;28;20040;-79
2023/05/01 04:10:06;;;;;;;28.10;15.85;;;;;;;4.69;53.98;98896.72;5010093;28;20034;-79
2023/05/01 04:12:32;;;;;;;28.98;15.63;;;;;;;4.71;53.82;98899.22;5010245;28;20026;-80
2023/05/01 04:14:57;;;;;;;26.65;15.10;;;;;;;4.72;54.04;98885.38;5010408;28;20030;-80
2023/05/01 04:17:24;;;;;;;26.90;16.00;;;;;;;4.75;54.20;98898.47;5010399;28;20109;-80
2023/05/01 04:19:49;;;;;;;31.58;17.52;;;;;;;4.77;54.20;98890.88;5010518;28;20544;-80
2023/05/01 04:22:15;;;;;;;30.88;17.55;;;;;;;4.82;54.55;98894.75;5009020;28;20058;-80
2023/05/01 04:24:41;;;;;;;29.88;17.25;;;;;;;4.84;54.09;98898.91;5010464;28;20486;-80
2023/05/01 04:27:06;;;;;;;29.77;17.27;;;;;;;4.89;54.14;98893.50;5010376;28;20033;-79
2023/05/01 04:29:31;;;;;;;30.55;16.95;;;;;;;4.94;54.69;98894.66;5010246;28;20030;-80
2023/05/01 04:31:57;;;;;;;27.75;15.88;;;;;;;4.99;54.09;98906.47;5010192;28;20030;-80
2023/05/01 04:34:22;;;;;;;27.20;16.05;;;;;;;5.03;54.66;98904.06;5010309;28;20041;-79
2023/05/01 04:36:48;;;;;;;23.65;14.00;;;;;;;5.08;54.54;98895.97;5010346;28;20434;-80
2023/05/01 04:39:14;;;;;;;25.70;13.73;;;;;;;5.12;54.89;98883.53;5010219;28;20112;-79
2023/05/01 04:41:39;;;;;;;21.45;12.45;;;;;;;5.18;54.67;98893.41;5010337;28;20478;-79
2023/05/01 04:44:04;;;;;;;21.45;12.52;;;;;;;5.23;54.90;98898.09;5010314;28;20034;-79
2023/05/01 04:46:30;;;;;;;20.80;11.43;;;;;;;5.27;54.65;98896.53;5010401;28;20029;-80
2023/05/01 04:48:55;;;;;;;21.67;12.50;;;;;;;5.33;55.10;98894.69;5010445;28;20033;-79
2023/05/01 04:51:21;;;;;;;20.15;12.25;;;;;;;5.38;54.82;98900.19;5010845;28;20022;-80
2023/05/01 04:53:47;;;;;;;22.85;12.73;;;;;;;5.43;54.86;98894.03;5011198;28;20495;-79
2023/05/01 04:56:12;;;;;;;22.80;12.02;;;;;;;5.47;54.47;98895.97;5011173;28;20467;-80
2023/05/01 04:58:38;;;;;;;19.75;10.50;;;;;;;5.54;54.86;98890.34;5011080;28;20391;-79
2023/05/01 05:01:03;;;;;;;20.25;10.77;;;;;;;5.59;54.95;98892.31;5010267;28;20373;-79
2023/05/01 05:03:28;;;;;;;19.90;10.52;;;;;;;5.66;54.76;98884.78;5009701;28;20525;-79
2023/05/01 05:05:54;;;;;;;20.58;10.25;;;;;;;5.72;54.74;98883.75;5009936;28;20037;-79
2023/05/01 05:08:20;;;;;;;17.40;10.20;;;;;;;5.80;54.73;98890.66;5010065;28;20049;-79
2023/05/01 05:10:45;;;;;;;18.70;9.70;;;;;;;5.86;55.16;98889.66;5009806;28;20121;-79
2023/05/01 05:13:10;;;;;;;19.60;10.40;;;;;;;5.95;55.39;98896.28;5008500;28;20117;-79
2023/05/01 05:15:36;;;;;;;18.42;9.82;;;;;;;6.03;55.13;98897.78;5009973;28;20026;-80
2023/05/01 05:18:02;;;;;;;17.92;9.10;;;;;;;6.11;55.38;98896.47;5013148;28;20049;-79
2023/05/01 05:20:28;;;;;;;18.60;9.35;;;;;;;6.20;55.47;98889.50;5013156;28;20113;-79
2023/05/01 05:22:53;;;;;;;17.55;9.13;;;;;;;6.29;55.53;98887.13;5012988;28;20101;-79
2023/05/01 05:25:18;;;;;;;18.17;8.55;;;;;;;6.40;55.63;98890.78;5012893;28;20164;-79
2023/05/01 05:27:44;;;;;;;17.75;7.90;;;;;;;6.48;55.26;98901.22;5013013;28;20029;-79
2023/05/01 05:30:10;;;;;;;14.63;8.52;;;;;;;6.59;55.69;98893.94;5011631;28;20396;-79
2023/05/01 05:32:36;;;;;;;16.48;8.02;;;;;;;6.71;55.55;98893.78;5012851;28;20026;-79
2023/05/01 05:35:01;;;;;;;12.00;7.45;;;;;;;6.81;55.56;98891.13;5013006;28;20022;-79
2023/05/01 05:37:27;;;;;;;14.20;6.93;;;;;;;6.91;55.22;98893.13;5011605;28;20045;-79
2023/05/01 05:39:52;;;;;;;14.13;6.78;;;;;;;7.00;55.25;98888.00;5012801;28;20151;-80
2023/05/01 05:42:18;;;;;;;13.07;7.50;;;;;;;7.11;55.28;98888.88;5011470;28;20033;-80
2023/05/01 05:44:43;;;;;;;12.70;6.93;;;;;;;7.21;55.56;98886.22;5012778;28;20026;-80
2023/05/01 05:47:08;;;;;;;14.32;7.40;;;;;;;7.34;55.42;98882.22;5011506;28;20104;-79
2023/05/01 05:49:34;;;;;;;12.10;7.00;;;;;;;7.44;55.34;98882.28;5012651;28;20071;-79
2023/05/01 05:51:59;;;;;;;15.13;8.02;;;;;;;7.54;55.13;98891.59;5012529;28;20022;-79
2023/05/01 05:54:25;;;;;;;14.30;8.13;;;;;;;7.62;55.10;98888.34;5012961;28;20028;-79
2023/05/01 05:56:50;;;;;;;13.02;7.50;;;;;;;7.72;55.03;98885.66;5012537;28;20065;-79
2023/05/01 05:59:15;;;;;;;12.25;7.25;;;;;;;7.84;54.89;98890.09;5012525;28;20054;-79
2023/05/01 06:01:41;;;;;;;14.25;6.57;;;;;;;7.93;55.07;98885.75;5012545;28;20026;-79
2023/05/01 06:04:07;;;;;;;12.77;7.30;;;;;;;8.02;54.88;98886.84;5012557;28;20050;-79
2023/05/01 06:06:33;;;;;;;12.60;6.68;;;;;;;8.13;54.90;98889.63;4995014;28;20034;-79
2023/05/01 06:08:59;;;;;;;13.02;7.10;;;;;;;8.21;54.75;98875.44;5012267;28;20022;-79
2023/05/01 06:11:26;;;;;;;13.70;7.30;;;;;;;8.31;54.42;98882.81;5012605;28;20053;-79
2023/05/01 06:13:56;;;;;;;16.27;7.35;;;;;;;8.40;54.42;98883.09;5012619;28;20036;-79
2023/05/01 06:16:21;;;;;;;14.95;7.20;;;;;;;8.51;54.48;98889.44;5012373;28;20026;-79
2023/05/01 06:18:47;;;;;;;12.73;7.03;;;;;;;8.60;54.66;98887.78;5012387;28;20022;-79
2023/05/01 06:21:12;;;;;;;12.45;6.88;;;;;;;8.69;54.36;98891.63;5012129;28;20463;-79
2023/05/01 06:23:38;;;;;;;17.95;9.40;;;;;;;8.77;53.82;98882.06;5012248;28;20071;-79
2023/05/01 06:26:04;;;;;;;14.90;6.75;;;;;;;8.86;54.44;98882.34;5012085;28;20480;-79
2023/05/01 06:28:29;;;;;;;9.15;6.03;;;;;;;8.93;53.88;98875.50;5010998;28;20033;-79
2023/05/01 06:30:55;;;;;;;10.40;6.38;;;;;;;9.02;54.03;98877.69;5012044;28;20060;-79
2023/05/01 06:33:20;;;;;;;10.65;5.72;;;;;;;9.11;53.81;98878.75;5012077;28;20172;-79
2023/05/01 06:35:46;;;;;;;9.52;5.30;;;;;;;9.19;53.60;98880.91;5010770;28;20532;-78
2023/05/01 06:38:11;;;;;;;9.98;5.78;;;;;;;9.29;53.00;98882.00;5011996;28;20025;-79
2023/05/01 06:40:36;;;;;;;10.35;5.82;;;;;;;9.37;53.56;98884.16;5011996;28;20524;-79
2023/05/01 06:43:02;;;;;;;12.00;6.07;;;;;;;9.48;53.29;98879.47;5011873;28;20044;-79
2023/05/01 06:45:27;;;;;;;12.57;5.65;;;;;;;9.56;53.62;98881.66;5011933;28;20034;-79
2023/05/01 06:47:53;;;;;;;11.25;5.90;;;;;;;9.66;52.51;98884.34;5011893;28;20399;-79
2023/05/01 06:50:18;;;;;;;10.32;5.53;;;;;;;9.78;52.90;98883.22;5011656;28;20178;-79
2023/05/01 06:52:44;;;;;;;10.15;5.00;;;;;;;9.87;52.65;98878.78;5011728;28;20041;-79
2023/05/01 06:55:09;;;;;;;9.50;4.93;;;;;;;9.97;52.94;98870.50;5011837;28;20097;-79
2023/05/01 06:57:35;;;;;;;9.73;4.32;;;;;;;10.07;52.85;98869.63;5012028;28;20485;-78
2023/05/01 07:00:00;;;;;;;8.27;4.85;;;;;;;10.16;52.24;98863.56;5011632;28;20136;-79
2023/05/01 07:02:25;;;;;;;9.18;4.97;;;;;;;10.26;51.90;98860.75;5011809;28;20063;-79
2023/05/01 07:04:52;;;;;;;8.48;4.90;;;;;;;10.34;52.22;98857.44;5011347;28;20046;-79
2023/05/01 07:07:17;;;;;;;8.93;4.13;;;;;;;10.43;51.62;98863.13;5010957;28;20074;-79
2023/05/01 07:09:42;;;;;;;9.35;4.50;;;;;;;10.50;51.94;98857.31;4993973;28;20033;-78
2023/05/01 07:12:08;;;;;;;8.52;4.28;;;;;;;10.59;51.36;98858.34;5011079;28;20026;-79
2023/05/01 07:14:34;;;;;;;6.55;3.60;;;;;;;10.70;51.41;98853.59;5011360;28;20372;-78
2023/05/01 07:17:00;;;;;;;7.90;3.72;;;;;;;10.80;50.48;98860.94;5011335;28;20026;-78
2023/05/01 07:19:25;;;;;;;8.77;4.13;;;;;;;10.89;50.88;98859.19;5010731;28;20634;-78
2023/05/01 07:21:51;;;;;;;9.25;3.75;;;;;;;10.97;51.05;98852.28;5010965;28;20056;-78
2023/05/01 07:24:16;;;;;;;8.85;4.25;;;;;;;11.05;50.55;98854.38;5011015;28;20486;-79
2023/05/01 07:26:42;;;;;;;8.65;3.28;;;;;;;11.16;50.14;98852.38;5011193;28;20460;-79
2023/05/01 07:29:07;;;;;;;5.20;3.15;;;;;;;11.24;49.69;98850.91;5010836;28;20021;-79
2023/05/01 07:31:32;;;;;;;6.20;3.53;;;;;;;11.33;49.36;98849.16;5010747;28;20061;-79
2023/05/01 07:33:58;;;;;;;7.75;3.38;;;;;;;11.40;49.59;98846.06;5011022;28;20030;-80
2023/05/01 07:36:23;;;;;;;5.97;3.03;;;;;;;11.50;49.10;98845.94;5010997;28;20045;-77
2023/05/01 07:38:49;;;;;;;5.10;2.67;;;;;;;11.61;49.42;98849.38;5010634;28;20046;-79
2023/05/01 07:41:14;;;;;;;7.20;3.28;;;;;;;11.71;48.86;98857.50;4993456;28;20029;-80
2023/05/01 07:43:40;;;;;;;7.40;3.75;;;;;;;11.80;48.72;98845.88;5004132;28;20045;-76
2023/05/01 07:46:05;;;;;;;6.60;4.13;;;;;;;11.88;49.26;98851.50;5008374;28;20048;-77
2023/05/01 07:48:31;;;;;;;6.13;3.10;;;;;;;12.00;48.86;98853.06;5009184;28;20641;-77
2023/05/01 07:51:01;;;;;;;7.68;3.40;;;;;;;12.10;48.46;98847.38;5009041;28;20600;-77
2023/05/01 07:53:26;;;;;;;7.72;4.65;;;;;;;12.22;48.26;98855.22;5008560;28;20042;-76
2023/05/01 07:55:52;;;;;;;5.57;3.33;;;;;;;12.32;47.88;98848.72;5008516;28;20095;-81
2023/05/01 07:58:17;;;;;;;6.05;3.20;;;;;;;12.39;47.54;98851.94;5008789;28;20034;-77
2023/05/01 08:00:44;;;;;;;5.57;3.95;;;;;;;12.46;47.75;98852.34;5008844;28;20038;-77
2023/05/01 08:03:10;;;;;;;4.90;3.20;;;;;;;12.57;47.57;98855.78;5009015;28;20477;-77
2023/05/01 08:05:35;;;;;;;7.35;3.40;;;;;;;12.65;48.13;98851.53;5009450;28;20105;-77
2023/05/01 08:08:00;;;;;;;6.13;3.25;;;;;;;12.73;47.06;98850.84;4992069;28;20022;-77
2023/05/01 08:10:27;;;;;;;5.10;3.00;;;;;;;12.81;47.01;98852.06;4991471;28;20030;-77
2023/05/01 08:12:52;;;;;;;5.97;3.33;;;;;;;12.90;47.01;98850.28;5009423;28;20029;-77
2023/05/01 08:15:19;;;;;;;6.15;3.00;;;;;;;12.99;46.57;98844.06;5009376;28;20030;-77
2023/05/01 08:17:45;;;;;;;5.80;2.75;;;;;;;13.07;46.35;98840.59;5009357;28;20030;-78
2023/05/01 08:20:11;;;;;;;5.82;2.83;;;;;;;13.14;46.17;98832.75;5009272;28;20022;-77
2023/05/01 08:22:37;;;;;;;6.70;2.83;;;;;;;13.22;46.14;98840.31;5008938;28;20095;-77
2023/05/01 08:25:03;;;;;;;5.88;2.72;;;;;;;13.29;46.00;98837.16;5009317;28;20479;-77
2023/05/01 08:27:29;;;;;;;4.25;2.53;;;;;;;13.37;45.87;98828.19;5009336;28;20029;-78
2023/05/01 08:29:54;;;;;;;4.40;2.55;;;;;;;13.45;45.86;98823.13;5009151;28;20239;-77
2023/05/01 08:32:20;;;;;;;5.18;2.53;;;;;;;13.52;45.32;98829.84;5009111;28;20109;-78
2023/05/01 08:34:45;;;;;;;5.88;2.60;;;;;;;13.59;45.23;98826.69;5009793;28;20022;-77
2023/05/01 08:37:11;;;;;;;8.65;2.67;;;;;;;13.67;45.07;98827.91;5008816;28;20025;-77
2023/05/01 08:39:36;;;;;;;6.45;2.50;;;;;;;13.72;44.79;98822.28;5009129;28;20033;-78
2023/05/01 08:42:02;;;;;;;5.13;2.55;;;;;;;13.80;44.83;98823.50;5009203;28;20069;-78
2023/05/01 08:44:30;;;;;;;7.40;2.20;;;;;;;13.88;44.84;98820.03;5009016;28;20092;-81
2023/05/01 08:47:16;;;;;;;6.57;2.63;;;;;;;13.94;44.27;98820.72;5009042;28;20109;-79
2023/05/01 08:49:43;;;;;;;4.72;2.22;;;;;;;13.99;44.10;98815.09;5008549;28;20494;-77
2023/05/01 08:52:13;;;;;;;4.13;2.13;;;;;;;14.01;44.11;98817.53;5010965;28;20025;-76
2023/05/01 08:54:41;;;;;;;5.75;2.30;;;;;;;14.06;43.84;98807.22;5012502;28;20455;-76
2023/05/01 08:57:08;;;;;;;6.25;2.40;;;;;;;14.14;44.07;98811.16;5011089;28;20030;-76
2023/05/01 08:59:35;;;;;;;9.32;2.20;;;;;;;14.20;43.37;98809.91;5010740;28;20463;-76
2023/05/01 09:02:03;;;;;;;5.82;2.50;;;;;;;14.26;43.08;98802.34;5011585;28;20090;-76
2023/05/01 09:04:34;;;;;;;7.75;2.80;;;;;;;14.29;43.32;98802.53;5011983;28;20046;-76
2023/05/01 09:07:00;;;;;;;4.43;2.13;;;;;;;14.38;42.97;98805.34;5012166;28;20033;-76
2023/05/01 09:09:26;;;;;;;5.10;2.70;;;;;;;14.43;42.57;98804.44;5010881;28;20399;-76
2023/05/01 09:11:56;;;;;;;2.65;1.80;;;;;;;14.50;43.17;98799.25;5012080;28;20018;-76
2023/05/01 09:14:21;;;;;;;4.95;2.30;;;;;;;14.57;42.72;98793.31;5011715;28;20026;-76
2023/05/01 09:16:47;;;;;;;4.97;2.25;;;;;;;14.59;42.53;98794.63;5010704;28;20088;-76
2023/05/01 09:19:13;;;;;;;4.50;2.28;;;;;;;14.66;42.43;98794.19;5011766;28;20525;-76
2023/05/01 09:21:39;;;;;;;4.80;2.10;;;;;;;14.72;41.76;98792.13;4995030;28;20109;-76
2023/05/01 09:24:04;;;;;;;4.95;2.28;;;;;;;14.74;41.95;98787.91;5011951;28;20476;-79
2023/05/01 09:26:33;;;;;;;3.97;2.38;;;;;;;14.81;42.15;98783.91;5011890;28;20061;-78
2023/05/01 09:28:59;;;;;;;3.85;2.40;;;;;;;14.85;41.68;98782.13;5011503;28;20067;-79
2023/05/01 09:31:31;;;;;;;7.10;2.40;;;;;;;14.91;41.79;98780.88;5011888;28;20055;-76
2023/05/01 09:34:04;;;;;;;3.80;2.30;;;;;;;15.00;41.77;98780.91;5012012;28;20042;-76
2023/05/01 09:36:32;;;;;;;4.97;2.13;;;;;;;15.06;41.86;98779.63;5011084;28;20030;-78
2023/05/01 09:39:01;;;;;;;7.20;2.30;;;;;;;15.16;41.66;98779.38;5011672;28;20071;-77
2023/05/01 09:41:27;;;;;;;3.47;1.80;;;;;;;15.26;41.25;98771.94;5011229;28;20025;-77
2023/05/01 09:43:55;;;;;;;3.85;1.90;;;;;;;15.30;41.45;98773.72;5011434;28;20173;-77
2023/05/01 09:46:22;;;;;;;5.40;2.03;;;;;;;15.39;41.44;98770.97;5011511;28;20357;-78
2023/05/01 09:48:54;;;;;;;3.50;2.20;;;;;;;15.50;41.32;98773.44;5011467;28;20026;-77
2023/05/01 09:51:31;;;;;;;3.38;2.20;;;;;;;15.58;41.18;98761.59;5011722;28;20029;-75
2023/05/01 09:54:02;;;;;;;4.10;2.22;;;;;;;15.66;41.40;98768.28;5011008;28;20087;-76
2023/05/01 09:56:30;;;;;;;5.72;2.05;;;;;;;15.76;41.35;98763.25;5011413;28;20112;-77
2023/05/01 09:58:58;;;;;;;5.18;2.10;;;;;;;15.88;41.42;98767.34;5011431;28;20037;-77
2023/05/01 10:01:44;;;;;;;2.90;1.70;;;;;;;15.93;40.54;98767.19;5010286;28;20380;-76
2023/05/01 10:04:10;;;;;;;3.35;2.03;;;;;;;15.96;40.44;98761.03;5010395;28;20054;-74
2023/05/01 10:06:36;;;;;;;3.90;1.88;;;;;;;16.01;40.13;98762.81;5010950;28;20372;-76
2023/05/01 10:09:03;;;;;;;5.20;2.28;;;;;;;16.03;39.91;98761.34;5010996;28;20472;-75
2023/05/01 10:11:30;;;;;;;3.03;1.83;;;;;;;16.12;40.97;98758.59;5011270;28;20101;-82
2023/05/01 10:14:08;;;;;;;6.97;2.20;;;;;;;16.22;40.82;98760.19;5011298;28;20099;-81
2023/05/01 10:16:36;;;;;;;4.10;1.98;;;;;;;16.31;40.76;98760.19;5011421;28;20498;-82
2023/05/01 10:19:02;;;;;;;4.72;2.03;;;;;;;16.36;40.46;98747.00;5011419;28;20022;-82
2023/05/01 10:21:30;;;;;;;3.17;2.00;;;;;;;16.40;40.46;98749.13;5011404;28;20101;-83
2023/05/01 10:23:56;;;;;;;3.83;2.03;;;;;;;16.47;40.28;98743.91;5016649;28;20026;-83
2023/05/01 10:26:25;;;;;;;4.97;2.38;;;;;;;16.54;40.49;98746.16;5019059;28;20032;-82
2023/05/01 10:28:50;;;;;;;4.70;2.05;;;;;;;16.64;40.30;98751.34;5013070;28;20045;-81
2023/05/01 10:31:18;;;;;;;4.13;1.98;;;;;;;16.71;40.42;98746.09;5011525;28;20030;-82
2023/05/01 10:33:46;;;;;;;3.30;1.98;;;;;;;16.76;40.17;98734.03;5010110;28;20106;-82
2023/05/01 10:36:17;;;;;;;4.05;2.33;;;;;;;16.85;40.64;98740.38;5010363;28;20026;-82
2023/05/01 10:38:47;;;;;;;7.90;2.55;;;;;;;16.91;40.10;98738.22;5010446;28;20032;-83
2023/05/01 10:41:13;;;;;;;4.40;2.20;;;;;;;16.96;40.38;98730.56;4992538;28;20049;-82
2023/05/01 10:43:39;;;;;;;4.25;2.35;;;;;;;17.04;39.71;98733.63;5010694;28;20026;-82
2023/05/01 10:46:25;;;;;;;4.40;1.83;;;;;;;17.06;39.33;98731.34;5010392;28;20104;-83
2023/05/01 10:48:54;;;;;;;3.67;1.80;;;;;;;17.08;38.87;98729.88;5009783;28;20452;-83
2023/05/01 10:51:23;;;;;;;4.10;1.90;;;;;;;17.12;39.02;98716.16;5010827;28;20113;-83
2023/05/01 10:54:12;;;;;;;4.22;1.95;;;;;;;17.11;38.35;98717.31;5010532;28;20041;-83
2023/05/01 10:56:37;;;;;;;3.92;2.38;;;;;;;17.13;38.34;98715.00;5010599;28;20026;-82
2023/05/01 10:59:03;;;;;;;3.13;2.10;;;;;;;17.17;38.56;98709.59;5010443;28;20113;-83
2023/05/01 11:01:35;;;;;;;3.35;2.15;;;;;;;17.21;38.48;98714.16;5010758;28;20022;-83
2023/05/01 11:04:10;;;;;;;3.40;2.10;;;;;;;17.24;38.74;98699.63;5009848;28;20098;-72
2023/05/01 11:06:36;;;;;;;3.75;2.25;;;;;;;17.35;39.45;98696.47;5010516;28;20030;-71
2023/05/01 11:09:35;;;;;;;2.05;1.75;;;;;;;17.45;39.12;98684.19;5010419;28;20018;-72
2023/05/01 11:12:00;;;;;;;4.13;1.95;;;;;;;17.51;38.74;98688.38;5010186;28;20026;-72
2023/05/01 11:14:26;;;;;;;4.15;1.90;;;;;;;17.54;38.61;98682.97;4992036;28;20033;-73
2023/05/01 11:16:51;;;;;;;3.42;2.00;;;;;;;17.59;38.48;98678.38;5010226;28;20475;-72
2023/05/01 11:19:19;;;;;;;7.18;2.20;;;;;;;17.61;38.20;98676.88;5010105;28;20021;-72
2023/05/01 11:21:45;;;;;;;3.47;2.25;;;;;;;17.67;38.37;98674.72;5010320;28;20030;-78
2023/05/01 11:24:11;;;;;;;4.28;2.30;;;;;;;17.71;38.53;98675.69;5009824;28;20024;-72
2023/05/01 11:26:41;;;;;;;3.33;2.10;;;;;;;17.74;38.30;98666.66;5009382;28;20108;-71
2023/05/01 11:29:09;;;;;;;3.05;2.10;;;;;;;17.75;38.07;98662.72;5009957;28;20570;-71
2023/05/01 11:31:35;;;;;;;3.78;2.17;;;;;;;17.75;37.77;98659.94;5009888;28;20113;-71